Time;durP1;ratioP1;P1;durP2;ratioP2;P2;SDS_P1;SDS_P2;PMS_P1;PMS_P2;Temp;Humidity;BMP_temperature;BMP_pressure;BME280_temperature;BME280_humidity;BME280_pressure;Samples;Min_cycle;Max_cycle;Signal;HPM_P1;HPM_P2
2023/09/26 00:00:01;;;;;;;2.33;1.35;;;;;;;15.06;82.62;100049.22;332006;29;18013;-87
2023/09/26 00:00:20;;;;;;;2.88;1.52;;;;;;;15.03;83.03;100049.38;336325;28;4491;-86
2023/09/26 00:00:33;;;;;;;2.60;1.75;;;;;;;14.98;82.93;100046.94;332170;29;16826;-87
2023/09/26 00:00:49;;;;;;;2.58;1.60;;;;;;;14.98;82.94;100046.09;331548;29;17967;-87
2023/09/26 00:01:01;;;;;;;1.98;1.40;;;;;;;15.00;83.04;100044.25;332159;29;16925;-86
2023/09/26 00:01:13;;;;;;;1.50;1.23;;;;;;;15.03;83.25;100049.38;334327;29;4524;-86
2023/09/26 00:01:30;;;;;;;1.63;1.30;;;;;;;15.04;82.65;100044.97;329745;29;17408;-87
2023/09/26 00:01:42;;;;;;;2.17;1.48;;;;;;;15.07;82.76;100055.28;330936;29;17545;-87
2023/09/26 00:01:54;;;;;;;2.33;1.67;;;;;;;15.06;82.57;100046.59;333774;29;7731;-88
2023/09/26 00:02:06;;;;;;;1.85;1.63;;;;;;;15.08;82.64;100047.38;333003;29;18258;-87
2023/09/26 00:02:18;;;;;;;1.80;1.40;;;;;;;15.09;82.60;100048.22;335078;29;5590;-87
2023/09/26 00:02:30;;;;;;;2.08;1.40;;;;;;;15.11;82.84;100047.25;333008;29;4741;-87
2023/09/26 00:02:43;;;;;;;2.67;1.55;;;;;;;15.11;82.44;100047.25;333552;29;17474;-87
2023/09/26 00:02:55;;;;;;;2.47;1.60;;;;;;;15.12;82.83;100048.94;330662;29;4517;-86
2023/09/26 00:03:07;;;;;;;2.05;1.45;;;;;;;15.13;82.46;100047.16;331392;29;17280;-87
2023/09/26 00:03:19;;;;;;;2.70;1.45;;;;;;;15.13;82.60;100045.41;332576;29;4641;-86
2023/09/26 00:03:31;;;;;;;2.70;1.48;;;;;;;15.13;82.51;100048.03;328508;29;17595;-87
2023/09/26 00:03:44;;;;;;;2.30;1.42;;;;;;;15.12;82.34;100051.56;331761;29;5260;-87
2023/09/26 00:03:56;;;;;;;2.05;1.38;;;;;;;15.14;82.42;100051.50;328654;29;18045;-87
2023/09/26 00:04:08;;;;;;;2.50;1.50;;;;;;;15.11;82.13;100047.25;325709;29;4508;-87
2023/09/26 00:04:21;;;;;;;2.30;1.50;;;;;;;15.11;82.07;100047.25;329801;29;18570;-86
2023/09/26 00:04:33;;;;;;;2.28;1.52;;;;;;;15.08;82.46;100050.00;333482;29;4546;-86
2023/09/26 00:04:47;;;;;;;2.05;1.40;;;;;;;15.09;82.35;100049.09;330317;29;16908;-87
2023/09/26 00:04:59;;;;;;;1.98;1.30;;;;;;;15.12;82.29;100048.09;331944;29;4547;-86
2023/09/26 00:05:12;;;;;;;2.00;1.23;;;;;;;15.12;82.38;100046.31;328717;29;19440;-86
2023/09/26 00:05:24;;;;;;;2.97;1.45;;;;;;;15.15;82.19;100047.94;333629;29;4557;-86
2023/09/26 00:05:36;;;;;;;3.40;1.70;;;;;;;15.10;82.20;100044.69;330528;29;16807;-86
2023/09/26 00:05:48;;;;;;;3.53;1.77;;;;;;;15.07;81.83;100052.66;330146;29;4569;-86
2023/09/26 00:06:00;;;;;;;2.13;1.48;;;;;;;15.07;82.26;100050.94;334624;29;4582;-86
2023/09/26 00:06:22;;;;;;;2.17;1.60;;;;;;;15.07;82.31;100053.53;331952;29;18370;-86
2023/09/26 00:06:34;;;;;;;1.88;1.38;;;;;;;15.06;82.21;100048.38;331816;29;17396;-86
2023/09/26 00:06:46;;;;;;;1.80;1.40;;;;;;;15.05;82.00;100050.16;331652;29;18369;-86
2023/09/26 00:07:00;;;;;;;1.95;1.40;;;;;;;15.00;82.32;100049.47;335068;29;4927;-86
2023/09/26 00:07:12;;;;;;;4.72;1.63;;;;;;;14.94;82.79;100050.59;332510;29;4664;-86
2023/09/26 00:07:25;;;;;;;5.43;1.70;;;;;;;14.95;82.39;100051.44;327304;29;17198;-86
2023/09/26 00:07:37;;;;;;;5.93;1.60;;;;;;;14.96;82.46;100043.53;332916;29;4607;-86
2023/09/26 00:07:49;;;;;;;3.07;1.30;;;;;;;14.96;82.65;100045.31;331506;29;16521;-86
2023/09/26 00:08:03;;;;;;;2.60;1.20;;;;;;;14.97;82.84;100049.63;334752;29;4499;-86
2023/09/26 00:08:16;;;;;;;2.85;1.23;;;;;;;14.94;82.68;100044.53;328412;29;18171;-87
2023/09/26 00:08:28;;;;;;;2.50;1.30;;;;;;;14.96;82.67;100042.69;332008;29;18130;-86
2023/09/26 00:08:40;;;;;;;3.25;1.50;;;;;;;14.95;82.64;100046.22;333446;29;5158;-86
2023/09/26 00:08:55;;;;;;;3.38;1.42;;;;;;;14.94;82.63;100050.59;333061;29;4908;-86
2023/09/26 00:09:08;;;;;;;3.33;1.50;;;;;;;14.94;82.09;100041.91;330881;29;17792;-87
2023/09/26 00:09:21;;;;;;;2.15;1.50;;;;;;;14.92;82.57;100047.19;329566;29;16505;-86
2023/09/26 00:09:33;;;;;;;1.73;1.40;;;;;;;14.93;82.58;100046.28;332739;29;4476;-86
2023/09/26 00:09:45;;;;;;;2.08;1.38;;;;;;;14.94;82.72;100044.53;329378;29;18156;-86
2023/09/26 00:09:57;;;;;;;2.00;1.33;;;;;;;14.89;82.55;100043.88;332156;29;4613;-86
2023/09/26 00:10:12;;;;;;;1.58;1.40;;;;;;;14.91;82.65;100047.25;329297;29;18195;-86
2023/09/26 00:10:24;;;;;;;1.60;1.35;;;;;;;14.94;82.86;100050.59;329660;29;17020;-86
2023/09/26 00:10:37;;;;;;;2.05;1.40;;;;;;;14.92;82.55;100046.34;327868;29;4754;-86
2023/09/26 00:10:49;;;;;;;2.17;1.40;;;;;;;14.93;82.83;100048.03;331050;29;4509;-87
2023/09/26 00:11:01;;;;;;;1.80;1.40;;;;;;;14.96;82.43;100047.91;329202;29;18327;-86
2023/09/26 00:11:15;;;;;;;1.40;1.30;;;;;;;14.95;82.54;100051.44;332182;29;4555;-86
2023/09/26 00:11:27;;;;;;;1.60;1.40;;;;;;;14.94;82.47;100050.59;326235;29;18053;-86
2023/09/26 00:11:39;;;;;;;2.10;1.50;;;;;;;14.94;82.51;100052.38;330738;29;4513;-86
2023/09/26 00:11:52;;;;;;;2.58;1.60;;;;;;;14.92;82.37;100049.81;332208;29;4542;-86
2023/09/26 00:12:05;;;;;;;2.63;1.60;;;;;;;14.91;82.69;100045.53;333329;29;4553;-87
2023/09/26 00:12:18;;;;;;;2.92;1.48;;;;;;;14.95;82.44;100051.44;331761;29;17849;-87
2023/09/26 00:12:30;;;;;;;3.92;1.40;;;;;;;14.95;82.39;100046.22;327455;29;5055;-86
2023/09/26 00:12:42;;;;;;;3.35;1.40;;;;;;;14.89;82.82;100046.47;334123;29;4507;-86
2023/09/26 00:12:55;;;;;;;2.25;1.50;;;;;;;14.82;82.84;100052.91;333263;29;4751;-87
2023/09/26 00:13:07;;;;;;;2.45;1.65;;;;;;;14.83;83.39;100047.63;330393;29;18311;-86
2023/09/26 00:13:19;;;;;;;2.08;1.67;;;;;;;14.82;83.60;100055.53;333552;29;4536;-86
2023/09/26 00:13:31;;;;;;;1.60;1.48;;;;;;;14.81;83.26;100051.19;330450;29;18853;-86
2023/09/26 00:13:43;;;;;;;1.45;1.35;;;;;;;14.81;83.29;100048.59;328441;29;4589;-86
2023/09/26 00:13:55;;;;;;;2.30;1.48;;;;;;;14.80;83.47;100052.13;333519;29;4708;-86
2023/09/26 00:14:07;;;;;;;3.88;1.70;;;;;;;14.82;83.48;100051.16;329459;29;18246;-86
2023/09/26 00:14:20;;;;;;;4.45;1.63;;;;;;;14.85;82.83;100048.41;332449;29;4548;-87
2023/09/26 00:14:32;;;;;;;2.63;1.70;;;;;;;14.87;82.99;100048.31;330446;29;18132;-86
2023/09/26 00:14:45;;;;;;;3.03;1.52;;;;;;;14.89;82.78;100046.47;333674;29;4682;-86
2023/09/26 00:14:57;;;;;;;2.40;1.50;;;;;;;14.92;82.76;100046.34;329064;29;18149;-87
2023/09/26 00:15:11;;;;;;;2.08;1.48;;;;;;;14.91;82.60;100049.88;333395;29;4542;-86
2023/09/26 00:15:24;;;;;;;1.90;1.63;;;;;;;14.90;82.57;100048.19;326569;29;17533;-86
2023/09/26 00:15:36;;;;;;;2.10;1.65;;;;;;;14.85;82.79;100052.78;333269;29;4544;-86
2023/09/26 00:15:48;;;;;;;1.90;1.50;;;;;;;14.83;83.35;100049.38;330283;29;17530;-85
2023/09/26 00:16:00;;;;;;;2.08;1.48;;;;;;;14.83;82.72;100046.75;332938;29;4739;-86
2023/09/26 00:16:12;;;;;;;1.90;1.50;;;;;;;14.84;82.78;100053.69;331094;29;10448;-87
2023/09/26 00:16:24;;;;;;;1.90;1.50;;;;;;;14.85;82.70;100044.91;330141;29;17065;-86
2023/09/26 00:16:36;;;;;;;1.85;1.50;;;;;;;14.89;82.77;100051.72;333423;29;4555;-86
2023/09/26 00:16:48;;;;;;;2.83;1.52;;;;;;;14.90;82.56;100049.03;329046;29;18098;-86
2023/09/26 00:17:01;;;;;;;3.03;1.65;;;;;;;14.83;82.75;100050.25;327727;29;4491;-86
2023/09/26 00:17:17;;;;;;;2.78;1.70;;;;;;;14.80;82.79;100046.91;331948;29;4587;-85
2023/09/26 00:17:29;;;;;;;1.80;1.33;;;;;;;14.81;82.93;100051.19;330560;29;17399;-86
2023/09/26 00:17:41;;;;;;;1.67;1.30;;;;;;;14.82;82.98;100047.69;333695;29;4639;-86
2023/09/26 00:17:53;;;;;;;1.52;1.35;;;;;;;14.83;83.13;100046.75;331278;29;4528;-86
2023/09/26 00:18:06;;;;;;;1.75;1.50;;;;;;;14.82;82.96;100048.53;332581;29;5604;-86
2023/09/26 00:18:18;;;;;;;1.90;1.50;;;;;;;14.79;83.24;100056.53;333282;29;4590;-86
2023/09/26 00:18:30;;;;;;;2.30;1.48;;;;;;;14.77;83.32;100045.28;324920;29;16910;-86
2023/09/26 00:18:42;;;;;;;2.30;1.50;;;;;;;14.74;83.55;100043.63;331755;29;4642;-87
2023/09/26 00:18:54;;;;;;;2.13;1.50;;;;;;;14.75;83.35;100044.50;329469;29;16797;-86
2023/09/26 00:19:07;;;;;;;1.80;1.40;;;;;;;14.73;83.48;100047.16;331293;29;4649;-86
2023/09/26 00:19:19;;;;;;;1.73;1.40;;;;;;;14.73;83.88;100046.34;329476;29;10797;-86
2023/09/26 00:19:31;;;;;;;3.88;1.50;;;;;;;14.74;83.80;100048.84;330297;29;4618;-86
2023/09/26 00:19:43;;;;;;;3.50;1.40;;;;;;;14.74;83.65;100048.00;329939;29;4623;-87
2023/09/26 00:19:57;;;;;;;3.63;1.50;;;;;;;14.69;84.13;100050.84;328150;29;16588;-87
2023/09/26 00:20:27;;;;;;;1.67;1.35;;;;;;;14.68;84.23;100048.28;325929;29;4548;-87
2023/09/26 00:20:40;;;;;;;2.42;1.55;;;;;;;14.65;84.08;100054.50;328342;29;17255;-87
2023/09/26 00:20:52;;;;;;;2.22;1.40;;;;;;;14.64;84.32;100058.03;332083;29;4542;-86
2023/09/26 00:21:04;;;;;;;2.17;1.40;;;;;;;14.60;84.26;100051.22;332342;29;4997;-87
2023/09/26 00:21:16;;;;;;;2.25;1.40;;;;;;;14.57;84.50;100052.22;329223;29;18029;-87
2023/09/26 00:21:29;;;;;;;2.88;1.65;;;;;;;14.52;84.64;100055.91;331764;29;4733;-87
2023/09/26 00:21:41;;;;;;;2.60;1.60;;;;;;;14.53;84.79;100050.63;330476;29;6912;-87
2023/09/26 00:21:53;;;;;;;2.30;1.60;;;;;;;14.56;84.63;100049.66;330647;29;18145;-86
2023/09/26 00:22:06;;;;;;;2.00;1.40;;;;;;;14.55;84.67;100050.56;333552;29;4610;-87
2023/09/26 00:22:19;;;;;;;2.25;1.40;;;;;;;14.52;84.54;100048.91;330534;29;16196;-86
2023/09/26 00:22:32;;;;;;;2.00;1.40;;;;;;;14.53;84.60;100044.53;330405;29;16967;-87
2023/09/26 00:22:44;;;;;;;2.10;1.30;;;;;;;14.53;84.71;100052.38;333041;29;4504;-86
2023/09/26 00:22:56;;;;;;;1.77;1.38;;;;;;;14.54;84.71;100046.22;331298;29;4579;-87
2023/09/26 00:23:08;;;;;;;2.60;1.35;;;;;;;14.55;84.58;100045.31;332672;29;15874;-86
2023/09/26 00:23:21;;;;;;;2.97;1.40;;;;;;;14.56;84.35;100047.03;330126;29;4603;-86
2023/09/26 00:23:33;;;;;;;3.03;1.40;;;;;;;14.58;84.77;100043.44;330460;29;19139;-87
2023/09/26 00:23:45;;;;;;;3.78;1.50;;;;;;;14.60;84.48;100048.59;333345;29;4534;-86
2023/09/26 00:23:57;;;;;;;3.85;1.80;;;;;;;14.56;84.62;100047.88;332962;29;10224;-87
2023/09/26 00:24:09;;;;;;;2.50;1.80;;;;;;;14.61;84.35;100047.69;330356;29;18158;-86
2023/09/26 00:24:21;;;;;;;2.25;1.70;;;;;;;14.61;84.59;100052.94;333081;29;4559;-86
2023/09/26 00:24:34;;;;;;;2.97;1.60;;;;;;;14.60;84.41;100046.00;330187;29;10683;-87
2023/09/26 00:24:46;;;;;;;2.92;1.52;;;;;;;14.59;84.21;100049.53;332269;29;5345;-86
2023/09/26 00:24:58;;;;;;;1.73;1.40;;;;;;;14.56;84.65;100049.66;325191;29;4545;-87
2023/09/26 00:25:10;;;;;;;1.63;1.40;;;;;;;14.56;84.76;100047.03;332138;29;4535;-86
2023/09/26 00:25:24;;;;;;;1.60;1.48;;;;;;;14.55;84.47;100047.94;333507;29;4614;-86
2023/09/26 00:25:37;;;;;;;1.90;1.50;;;;;;;14.54;84.78;100051.44;332050;29;17702;-86
2023/09/26 00:25:50;;;;;;;1.92;1.50;;;;;;;14.54;84.78;100046.22;329868;29;19045;-86
2023/09/26 00:26:03;;;;;;;1.80;1.52;;;;;;;14.51;84.70;100047.22;333140;29;4707;-86
2023/09/26 00:26:15;;;;;;;2.05;1.58;;;;;;;14.48;85.20;100046.47;330588;29;17348;-86
2023/09/26 00:26:27;;;;;;;2.22;1.50;;;;;;;14.51;84.81;100051.59;334268;29;4593;-86
2023/09/26 00:26:40;;;;;;;2.17;1.30;;;;;;;14.50;85.01;100045.50;330533;29;18250;-86
2023/09/26 00:26:54;;;;;;;2.80;1.40;;;;;;;14.53;84.76;100045.38;330742;29;17814;-86
2023/09/26 00:27:07;;;;;;;2.72;1.50;;;;;;;14.56;84.70;100045.25;332184;29;4515;-86
2023/09/26 00:27:19;;;;;;;2.40;1.40;;;;;;;14.59;84.56;100046.91;329611;29;18451;-86
2023/09/26 00:27:31;;;;;;;2.10;1.52;;;;;;;14.60;84.50;100048.59;331232;29;4513;-86
2023/09/26 00:27:44;;;;;;;2.45;1.80;;;;;;;14.59;84.66;100044.31;330249;29;4557;-86
2023/09/26 00:27:57;;;;;;;2.47;1.65;;;;;;;14.62;84.33;100044.16;324015;29;17907;-85
2023/09/26 00:28:09;;;;;;;2.42;1.50;;;;;;;14.59;84.42;100041.69;330036;29;4520;-86
2023/09/26 00:28:21;;;;;;;2.28;1.70;;;;;;;14.58;84.79;100043.44;331924;29;4582;-86
2023/09/26 00:28:34;;;;;;;2.15;1.70;;;;;;;14.59;84.69;100041.69;332232;29;4577;-86
2023/09/26 00:28:45;;;;;;;1.92;1.60;;;;;;;14.62;84.63;100049.38;331392;29;17551;-87
2023/09/26 00:28:58;;;;;;;2.33;1.63;;;;;;;14.64;84.38;100052.78;334711;29;4501;-87
2023/09/26 00:29:10;;;;;;;2.22;1.52;;;;;;;14.65;84.29;100044.03;333055;29;17826;-86
2023/09/26 00:29:22;;;;;;;2.25;1.60;;;;;;;14.66;84.36;100039.66;329928;29;18207;-86
2023/09/26 00:29:34;;;;;;;1.95;1.50;;;;;;;14.68;84.30;100043.03;327282;29;4621;-86
2023/09/26 00:29:47;;;;;;;2.03;1.35;;;;;;;14.63;84.45;100037.16;331051;29;4572;-86
2023/09/26 00:29:59;;;;;;;2.00;1.20;;;;;;;14.67;84.19;100047.44;333627;29;4505;-87
2023/09/26 00:30:12;;;;;;;1.70;1.20;;;;;;;14.68;84.08;100038.66;329679;29;4511;-86
2023/09/26 00:30:27;;;;;;;2.00;1.30;;;;;;;14.69;84.25;100039.50;330863;29;4497;-86
2023/09/26 00:30:41;;;;;;;2.13;1.50;;;;;;;14.66;83.88;100040.50;331413;29;17243;-86
2023/09/26 00:30:56;;;;;;;3.40;1.50;;;;;;;14.69;84.01;100036.88;328329;29;17669;-86
2023/09/26 00:31:08;;;;;;;3.33;1.52;;;;;;;14.70;83.90;100036.81;324507;29;17737;-86
2023/09/26 00:31:20;;;;;;;2.17;1.50;;;;;;;14.73;84.03;100036.69;332210;29;4678;-86
2023/09/26 00:31:32;;;;;;;2.45;1.60;;;;;;;14.70;83.89;100038.59;329407;29;18039;-87
2023/09/26 00:31:44;;;;;;;2.30;1.50;;;;;;;14.70;84.02;100039.44;332273;29;4541;-86
2023/09/26 00:31:58;;;;;;;2.15;1.50;;;;;;;14.70;84.00;100041.22;330658;29;16701;-87
2023/09/26 00:32:11;;;;;;;1.85;1.60;;;;;;;14.64;83.84;100042.31;333396;29;4728;-86
2023/09/26 00:32:24;;;;;;;2.22;1.70;;;;;;;14.60;84.38;100039.91;330838;29;18006;-86
2023/09/26 00:32:38;;;;;;;2.60;1.70;;;;;;;14.61;84.16;100045.09;333151;29;4530;-86
2023/09/26 00:32:51;;;;;;;2.30;1.40;;;;;;;14.62;84.19;100044.16;331653;29;16706;-87
2023/09/26 00:33:03;;;;;;;1.85;1.40;;;;;;;14.67;84.11;100041.34;326894;29;4665;-86
2023/09/26 00:33:15;;;;;;;2.00;1.50;;;;;;;14.65;84.06;100049.28;334754;29;4593;-86
2023/09/26 00:33:27;;;;;;;2.00;1.48;;;;;;;14.67;83.82;100052.66;330711;29;11062;-86
2023/09/26 00:33:39;;;;;;;2.00;1.38;;;;;;;14.67;83.90;100036.97;333461;29;4678;-86
2023/09/26 00:33:53;;;;;;;1.77;1.23;;;;;;;14.69;83.91;100040.38;333789;29;4485;-87
2023/09/26 00:34:05;;;;;;;4.55;1.40;;;;;;;14.70;83.97;100049.06;330398;29;16751;-87
2023/09/26 00:34:17;;;;;;;5.50;1.45;;;;;;;14.68;84.02;100048.28;332191;29;7038;-86
2023/09/26 00:34:30;;;;;;;3.90;1.45;;;;;;;14.64;84.06;100042.31;329526;29;16787;-86
2023/09/26 00:34:42;;;;;;;2.75;1.35;;;;;;;14.63;84.19;100043.25;331155;29;5797;-86
2023/09/26 00:34:54;;;;;;;1.80;1.40;;;;;;;14.63;84.00;100047.63;328158;29;17896;-86
2023/09/26 00:35:11;;;;;;;1.87;1.60;;;;;;;14.60;84.36;100046.00;330814;29;4553;-86
2023/09/26 00:35:24;;;;;;;2.40;1.73;;;;;;;14.58;84.46;100042.59;328940;29;17821;-87
2023/09/26 00:35:36;;;;;;;3.17;1.80;;;;;;;14.53;84.43;100044.53;333051;29;4519;-86
2023/09/26 00:35:48;;;;;;;3.20;1.75;;;;;;;14.56;84.10;100045.25;334575;29;4538;-85
2023/09/26 00:36:10;;;;;;;2.95;1.60;;;;;;;14.63;84.07;100050.22;328348;29;17452;-87
2023/09/26 00:36:22;;;;;;;3.28;1.48;;;;;;;14.64;84.16;100050.16;327776;29;18419;-87
2023/09/26 00:36:34;;;;;;;3.05;1.55;;;;;;;14.64;84.13;100047.56;327234;29;17900;-87
2023/09/26 00:36:46;;;;;;;4.97;2.00;;;;;;;14.64;84.49;100041.47;332032;29;4582;-87
2023/09/26 00:36:59;;;;;;;4.90;1.88;;;;;;;14.63;84.45;100048.50;324508;29;18268;-87
2023/09/26 00:37:11;;;;;;;3.53;1.70;;;;;;;14.66;84.10;100044.88;331279;29;4531;-86
2023/09/26 00:37:23;;;;;;;1.33;1.20;;;;;;;14.65;84.04;100044.03;331203;29;8074;-87
2023/09/26 00:37:35;;;;;;;1.48;1.25;;;;;;;14.64;84.31;100044.94;334684;29;4519;-86
2023/09/26 00:37:50;;;;;;;1.65;1.25;;;;;;;14.61;84.53;100047.69;332621;29;4473;-87
2023/09/26 00:38:03;;;;;;;1.77;1.30;;;;;;;14.62;84.37;100052.00;333983;29;10489;-87
2023/09/26 00:38:15;;;;;;;1.90;1.38;;;;;;;14.63;84.59;100051.09;332005;29;18285;-87
2023/09/26 00:38:27;;;;;;;2.92;1.52;;;;;;;14.64;84.45;100047.56;334570;29;4680;-87
2023/09/26 00:38:40;;;;;;;2.67;1.50;;;;;;;14.66;84.22;100050.94;329876;29;17833;-87
2023/09/26 00:38:52;;;;;;;2.58;1.38;;;;;;;14.66;84.01;100045.72;330012;29;4484;-86
2023/09/26 00:39:04;;;;;;;2.33;1.30;;;;;;;14.68;83.85;100050.91;328207;29;4644;-86
2023/09/26 00:39:16;;;;;;;2.45;1.42;;;;;;;14.67;84.09;100047.44;331063;29;4568;-86
2023/09/26 00:39:28;;;;;;;1.88;1.60;;;;;;;14.68;83.78;100038.66;330871;29;4533;-87
2023/09/26 00:39:41;;;;;;;1.75;1.45;;;;;;;14.65;83.82;100044.03;327352;29;18032;-87
2023/09/26 00:39:53;;;;;;;1.60;1.30;;;;;;;14.65;84.16;100046.66;331117;29;4531;-87
2023/09/26 00:40:10;;;;;;;1.52;1.30;;;;;;;14.69;83.71;100049.97;327915;29;16370;-87
2023/09/26 00:40:22;;;;;;;1.42;1.27;;;;;;;14.69;83.79;100053.44;328123;29;16198;-86
2023/09/26 00:40:35;;;;;;;2.00;1.38;;;;;;;14.65;83.87;100054.50;331809;29;4541;-86
2023/09/26 00:40:47;;;;;;;2.30;1.50;;;;;;;14.68;84.18;100046.50;326996;29;16368;-86
2023/09/26 00:40:59;;;;;;;2.15;1.40;;;;;;;14.68;83.92;100046.50;334813;29;4550;-87
2023/09/26 00:41:12;;;;;;;1.80;1.35;;;;;;;14.68;84.06;100049.13;333489;29;11042;-86
2023/09/26 00:41:24;;;;;;;1.42;1.20;;;;;;;14.64;83.97;100047.56;330777;29;17828;-87
2023/09/26 00:41:36;;;;;;;1.58;1.35;;;;;;;14.66;84.22;100044.88;332262;29;4450;-87
2023/09/26 00:41:48;;;;;;;1.38;1.25;;;;;;;14.65;84.52;100046.66;329545;29;17708;-86
2023/09/26 00:42:00;;;;;;;1.67;1.40;;;;;;;14.68;83.96;100049.13;332143;29;4460;-87
2023/09/26 00:42:12;;;;;;;2.78;1.75;;;;;;;14.68;83.95;100038.66;332305;29;4679;-86
2023/09/26 00:42:26;;;;;;;2.75;1.73;;;;;;;14.69;83.95;100045.59;329686;29;10554;-86
2023/09/26 00:42:38;;;;;;;2.80;1.48;;;;;;;14.70;83.88;100049.91;331412;29;4502;-86
2023/09/26 00:42:50;;;;;;;2.30;1.40;;;;;;;14.68;84.19;100043.88;330278;29;17496;-86
2023/09/26 00:43:02;;;;;;;1.85;1.40;;;;;;;14.67;83.90;100044.81;332279;29;4537;-87
2023/09/26 00:43:24;;;;;;;2.20;1.58;;;;;;;14.68;84.27;100054.34;329327;29;16826;-86
2023/09/26 00:43:36;;;;;;;1.65;1.38;;;;;;;14.68;83.95;100043.88;330128;29;17634;-86
2023/09/26 00:43:48;;;;;;;1.90;1.10;;;;;;;14.60;84.13;100046.00;333016;29;4538;-87
2023/09/26 00:44:01;;;;;;;2.10;1.20;;;;;;;14.62;84.35;100044.16;330580;29;18100;-86
2023/09/26 00:44:13;;;;;;;1.67;1.40;;;;;;;14.54;84.52;100041.00;333592;29;4633;-86
2023/09/26 00:44:25;;;;;;;2.45;1.42;;;;;;;14.53;84.56;100045.38;331695;29;18029;-86
2023/09/26 00:44:37;;;;;;;2.55;1.40;;;;;;;14.54;84.87;100046.22;334676;29;4493;-86
2023/09/26 00:44:49;;;;;;;2.17;1.52;;;;;;;14.45;85.34;100041.41;330799;29;4508;-86
2023/09/26 00:45:02;;;;;;;2.22;1.60;;;;;;;14.50;84.93;100039.41;332032;29;4491;-87
2023/09/26 00:45:15;;;;;;;1.98;1.50;;;;;;;14.51;85.29;100041.13;333516;29;9819;-86
2023/09/26 00:45:28;;;;;;;1.88;1.33;;;;;;;14.55;85.06;100050.56;326341;29;5205;-86
2023/09/26 00:45:40;;;;;;;1.80;1.40;;;;;;;14.57;84.73;100046.13;330459;29;16641;-87
2023/09/26 00:45:55;;;;;;;1.40;1.30;;;;;;;14.58;85.20;100042.59;333728;29;4602;-86
2023/09/26 00:46:11;;;;;;;1.60;1.50;;;;;;;14.59;84.80;100046.91;327706;29;17948;-87
2023/09/26 00:46:23;;;;;;;1.63;1.52;;;;;;;14.58;84.90;100043.44;323333;29;18894;-86
2023/09/26 00:46:35;;;;;;;1.85;1.30;;;;;;;14.54;84.75;100041.00;327463;29;5343;-87
2023/09/26 00:46:47;;;;;;;4.05;1.40;;;;;;;14.58;84.79;100043.44;331679;29;4679;-87
2023/09/26 00:47:00;;;;;;;3.90;1.50;;;;;;;14.57;84.46;100040.91;331825;29;4522;-86
2023/09/26 00:47:13;;;;;;;2.33;1.45;;;;;;;14.58;84.17;100048.66;329365;29;17317;-86
2023/09/26 00:47:25;;;;;;;1.50;1.40;;;;;;;14.58;84.68;100045.22;329727;29;10676;-86
2023/09/26 00:47:39;;;;;;;3.38;1.63;;;;;;;14.55;84.72;100048.78;332314;29;4522;-86
2023/09/26 00:47:52;;;;;;;3.50;1.60;;;;;;;14.51;84.65;100046.38;329655;29;17821;-87
2023/09/26 00:48:05;;;;;;;3.08;1.60;;;;;;;14.51;84.75;100046.38;333237;29;4631;-87
2023/09/26 00:48:17;;;;;;;1.83;1.60;;;;;;;14.51;85.17;100041.13;330452;29;16919;-86
2023/09/26 00:48:30;;;;;;;2.03;1.55;;;;;;;14.54;84.97;100043.59;328701;29;4551;-86
2023/09/26 00:48:42;;;;;;;2.17;1.63;;;;;;;14.52;84.75;100037.59;330158;29;17957;-86
2023/09/26 00:48:55;;;;;;;2.20;1.60;;;;;;;14.51;85.09;100041.13;332705;29;4529;-87
2023/09/26 00:49:10;;;;;;;2.30;1.50;;;;;;;14.51;85.00;100036.75;329422;29;16545;-86
2023/09/26 00:49:22;;;;;;;2.03;1.40;;;;;;;14.54;84.96;100049.69;328254;29;17986;-86
2023/09/26 00:49:35;;;;;;;1.88;1.30;;;;;;;14.52;85.19;100042.81;330834;29;4842;-86
2023/09/26 00:49:48;;;;;;;2.00;1.40;;;;;;;14.50;85.31;100039.41;329566;29;16490;-87
2023/09/26 00:50:03;;;;;;;2.20;1.52;;;;;;;14.50;85.25;100039.41;326328;29;4550;-86
2023/09/26 00:50:16;;;;;;;2.20;1.58;;;;;;;14.49;85.22;100043.81;327679;29;17584;-86
2023/09/26 00:50:28;;;;;;;2.38;1.55;;;;;;;14.49;85.34;100048.19;327590;29;17989;-87
2023/09/26 00:50:41;;;;;;;2.25;1.50;;;;;;;14.48;85.31;100042.09;331266;29;4497;-86
2023/09/26 00:50:53;;;;;;;2.05;1.45;;;;;;;14.50;85.22;100047.28;327081;29;17991;-86
2023/09/26 00:51:07;;;;;;;2.22;1.50;;;;;;;14.47;85.56;100043.03;330664;29;4534;-86
2023/09/26 00:51:19;;;;;;;2.20;1.42;;;;;;;14.48;85.31;100041.25;323055;29;18750;-86
2023/09/26 00:51:32;;;;;;;2.03;1.38;;;;;;;14.53;85.27;100044.53;330593;29;4504;-86
2023/09/26 00:51:44;;;;;;;2.95;1.50;;;;;;;14.55;84.99;100042.72;328951;29;17639;-87
2023/09/26 00:52:00;;;;;;;3.40;1.70;;;;;;;14.55;85.12;100047.94;331897;29;5376;-86
2023/09/26 00:52:12;;;;;;;4.13;1.63;;;;;;;14.53;85.11;100039.31;329621;29;17618;-87
2023/09/26 00:52:24;;;;;;;3.70;1.63;;;;;;;14.53;85.10;100040.16;333503;29;4570;-86
2023/09/26 00:52:39;;;;;;;2.30;1.50;;;;;;;14.53;84.98;100039.31;333751;29;4522;-86
2023/09/26 00:52:53;;;;;;;2.03;1.33;;;;;;;14.53;85.07;100045.38;331949;29;17161;-87
2023/09/26 00:53:05;;;;;;;2.03;1.33;;;;;;;14.54;85.16;100046.22;332972;29;16571;-87
2023/09/26 00:53:17;;;;;;;1.73;1.42;;;;;;;14.53;85.05;100044.53;333320;29;4578;-86
2023/09/26 00:53:30;;;;;;;1.70;1.60;;;;;;;14.51;85.15;100051.59;330818;29;17649;-87
2023/09/26 00:53:42;;;;;;;2.00;1.77;;;;;;;14.52;84.98;100041.03;333268;29;5434;-86
2023/09/26 00:53:55;;;;;;;2.35;1.70;;;;;;;14.52;84.81;100042.81;330938;29;16370;-86
2023/09/26 00:54:10;;;;;;;2.45;1.65;;;;;;;14.51;85.25;100041.13;332060;29;4536;-86
2023/09/26 00:54:22;;;;;;;2.17;1.50;;;;;;;14.51;85.09;100044.59;330601;29;17981;-86
2023/09/26 00:54:35;;;;;;;2.55;1.50;;;;;;;14.53;85.05;100044.53;326378;29;5055;-86
2023/09/26 00:54:47;;;;;;;2.60;1.45;;;;;;;14.49;85.14;100048.19;332626;29;4567;-86
2023/09/26 00:55:03;;;;;;;2.85;1.50;;;;;;;14.55;84.90;100047.94;330547;29;18177;-86
2023/09/26 00:55:18;;;;;;;2.92;1.58;;;;;;;14.55;84.92;100047.94;330735;29;16664;-87
2023/09/26 00:55:30;;;;;;;2.47;1.50;;;;;;;14.58;85.00;100038.19;331473;29;17850;-87
2023/09/26 00:55:44;;;;;;;3.30;1.48;;;;;;;14.60;84.76;100046.00;333274;29;4548;-86
2023/09/26 00:55:59;;;;;;;4.30;1.50;;;;;;;14.58;85.08;100045.22;330964;29;17887;-87
2023/09/26 00:56:11;;;;;;;2.92;1.50;;;;;;;14.58;84.88;100043.44;329063;29;17708;-86
2023/09/26 00:56:24;;;;;;;2.20;1.60;;;;;;;14.57;84.53;100046.13;333389;28;4531;-87
2023/09/26 00:56:38;;;;;;;2.22;1.70;;;;;;;14.59;84.74;100044.31;330310;28;18252;-87
2023/09/26 00:56:50;;;;;;;2.53;1.77;;;;;;;14.61;84.65;100049.44;329938;29;4577;-87
2023/09/26 00:57:04;;;;;;;2.85;1.65;;;;;;;14.63;84.55;100047.63;332540;29;4735;-87
2023/09/26 00:57:16;;;;;;;2.55;1.50;;;;;;;14.62;84.72;100048.53;328498;29;4571;-86
2023/09/26 00:57:28;;;;;;;2.83;1.60;;;;;;;14.61;84.50;100044.22;333401;29;4579;-86
2023/09/26 00:57:41;;;;;;;2.10;1.50;;;;;;;14.64;84.68;100041.47;333381;29;4527;-87
2023/09/26 00:57:54;;;;;;;2.00;1.30;;;;;;;14.66;84.51;100048.34;330186;29;18934;-87
2023/09/26 00:58:07;;;;;;;3.70;1.35;;;;;;;14.64;84.38;100041.47;331777;29;9948;-87
2023/09/26 00:58:21;;;;;;;3.88;1.58;;;;;;;14.65;84.38;100044.03;333677;29;4547;-87
2023/09/26 00:58:34;;;;;;;3.47;1.63;;;;;;;14.65;84.39;100037.94;330324;29;18036;-87
2023/09/26 00:58:46;;;;;;;4.07;1.63;;;;;;;14.65;84.78;100046.66;332905;29;4548;-87
2023/09/26 00:58:59;;;;;;;3.78;1.60;;;;;;;14.66;84.30;100045.72;330785;29;18256;-86
2023/09/26 00:59:11;;;;;;;1.95;1.63;;;;;;;14.65;84.64;100041.41;332012;29;4684;-87
2023/09/26 00:59:25;;;;;;;2.13;1.73;;;;;;;14.63;84.50;100043.25;335038;29;4497;-87
2023/09/26 00:59:39;;;;;;;2.30;1.60;;;;;;;14.66;84.63;100044.88;333054;28;16989;-87
2023/09/26 00:59:51;;;;;;;1.98;1.40;;;;;;;14.64;84.65;100039.72;332265;28;7569;-89
2023/09/26 01:00:06;;;;;;;1.55;1.40;;;;;;;14.67;84.61;100047.44;333517;29;4544;-87
2023/09/26 01:00:20;;;;;;;1.48;1.38;;;;;;;14.67;84.21;100044.81;329326;29;16613;-87
2023/09/26 01:00:32;;;;;;;1.60;1.40;;;;;;;14.68;84.60;100046.50;330349;29;10650;-87
2023/09/26 01:00:45;;;;;;;2.00;1.50;;;;;;;14.69;84.86;100036.88;331890;29;5274;-88
2023/09/26 01:00:58;;;;;;;1.80;1.40;;;;;;;14.66;84.48;100045.72;330774;29;11975;-87